createdAt,value
2018-11-05T00:04:05.948Z,100139.56
2018-11-05T00:09:10.719Z,100147.14
2018-11-05T00:14:14.506Z,100146.29
2018-11-05T00:19:18.012Z,100134.05
2018-11-05T00:24:22.840Z,100140.78
2018-11-05T00:29:26.966Z,100129.30
2018-11-05T00:34:30.530Z,100136.25
2018-11-05T00:39:34.180Z,100130.88
2018-11-05T00:44:37.798Z,100134.80
2018-11-05T00:49:41.314Z,100137.34
2018-11-05T00:54:44.774Z,100136.36
2018-11-05T00:59:48.706Z,100120.37
2018-11-05T01:04:52.615Z,100122.07
2018-11-05T01:09:57.243Z,100118.89
2018-11-05T01:15:01.575Z,100103.60
2018-11-05T01:20:06.823Z,100087.11
2018-11-05T01:25:10.968Z,100087.69
2018-11-05T01:30:14.884Z,100095.75
2018-11-05T01:35:18.428Z,100090.38
2018-11-05T01:40:21.924Z,100083.66
2018-11-05T01:45:25.526Z,100099.65
2018-11-05T01:50:29.022Z,100092.22
2018-11-05T01:55:32.570Z,100088.40
2018-11-05T02:00:36.510Z,100088.40
2018-11-05T02:05:40.485Z,100085.71
2018-11-05T02:10:44.557Z,100087.45
2018-11-05T02:15:49.434Z,100078.98
2018-11-05T02:20:53.044Z,100072.16
2018-11-05T02:25:56.506Z,100083.41
2018-11-05T02:30:59.981Z,100077.08
2018-11-05T02:36:03.427Z,100062.00
2018-11-05T02:41:07.192Z,100061.79
2018-11-05T02:46:10.678Z,100052.80
2018-11-05T02:51:14.155Z,100054.66
2018-11-05T02:56:17.600Z,100056.39
2018-11-05T03:01:21.034Z,100051.92
2018-11-05T03:06:24.456Z,100052.77
2018-11-05T03:11:28.227Z,100061.71
2018-11-05T03:16:31.693Z,100065.66
2018-11-05T03:21:35.139Z,100048.47
2018-11-05T03:26:38.573Z,100057.27
2018-11-05T03:31:42.060Z,100049.84
2018-11-05T03:36:45.505Z,100035.08
2018-11-05T03:41:48.973Z,100047.17
2018-11-05T03:46:52.845Z,100031.80
2018-11-05T03:51:56.285Z,100024.23
2018-11-05T03:56:59.741Z,100029.60
2018-11-05T04:02:03.187Z,100025.45
2018-11-05T04:07:06.618Z,100018.73
2018-11-05T04:12:10.069Z,100013.28
2018-11-05T04:17:13.518Z,100016.33
2018-11-05T04:22:17.099Z,100015.56
2018-11-05T04:27:20.567Z,100020.36
2018-11-05T04:32:24.034Z,100016.33
2018-11-05T04:37:27.489Z,100021.97
2018-11-05T04:42:30.910Z,100022.22
2018-11-05T04:47:34.415Z,100023.85
2018-11-05T04:52:38.063Z,100004.61
2018-11-05T04:57:41.523Z,100008.64
2018-11-05T05:02:45.024Z,100014.86
2018-11-05T05:07:48.511Z,100009.13
2018-11-05T05:12:51.998Z,99999.75
2018-11-05T05:17:55.440Z,99995.85
2018-11-05T05:22:59.002Z,100000.84
2018-11-05T05:28:02.364Z,99998.64
2018-11-05T05:33:06.032Z,100003.66
2018-11-05T05:38:09.452Z,99993.52
2018-11-05T05:43:12.907Z,99988.63
2018-11-05T05:48:16.362Z,99980.72
2018-11-05T05:53:19.828Z,99992.94
2018-11-05T05:58:23.304Z,99984.03
2018-11-05T06:03:26.786Z,99977.59
2018-11-05T06:08:30.251Z,99994.55
2018-11-05T06:13:33.746Z,99997.36
2018-11-05T06:18:37.198Z,99987.72
2018-11-05T06:23:40.663Z,99987.22
2018-11-05T06:28:44.200Z,99987.00
2018-11-05T06:33:47.584Z,99980.64
2018-11-05T06:38:51.083Z,99990.53
2018-11-05T06:43:54.522Z,99987.77
2018-11-05T06:48:58.175Z,100001.19
2018-11-05T06:54:01.679Z,99998.86
2018-11-05T06:59:05.184Z,100006.69
2018-11-05T07:04:08.648Z,100013.50
2018-11-05T07:09:12.665Z,100006.43
2018-11-05T07:14:16.114Z,100012.16
2018-11-05T07:19:19.813Z,100009.74
2018-11-05T07:24:23.159Z,100007.69
2018-11-05T07:29:26.636Z,100017.57
2018-11-05T07:34:30.170Z,100008.19
2018-11-05T07:39:33.711Z,100005.05
2018-11-05T07:44:37.258Z,100022.13
2018-11-05T07:49:40.767Z,100035.61
2018-11-05T07:54:44.233Z,100045.08
2018-11-05T07:59:47.691Z,100041.66
2018-11-05T08:04:51.162Z,100059.19
2018-11-05T08:09:54.607Z,100053.05
2018-11-05T08:14:58.085Z,100047.62
2018-11-05T08:20:01.615Z,100045.57
2018-11-05T08:25:05.341Z,100030.64
2018-11-05T08:30:12.796Z,100019.73
2018-11-05T08:35:16.323Z,100024.44
2018-11-05T08:40:21.948Z,100015.29
2018-11-05T08:45:26.523Z,100016.88
2018-11-05T08:50:30.014Z,100010.80
2018-11-05T08:55:33.435Z,100018.34
2018-11-05T09:00:42.195Z,100016.14
2018-11-05T09:05:45.652Z,100000.91
2018-11-05T09:10:49.432Z,100007.36
2018-11-05T09:15:52.565Z,100013.73
2018-11-05T09:20:56.137Z,100033.76
2018-11-05T09:26:00.221Z,100035.88
2018-11-05T09:31:03.683Z,100022.58
2018-11-05T09:36:07.130Z,100024.27
2018-11-05T09:41:10.558Z,100014.57
2018-11-05T09:46:14.019Z,100003.58
2018-11-05T09:51:17.459Z,99987.67
2018-11-05T09:56:20.938Z,100001.02
2018-11-05T10:01:24.395Z,100013.00
2018-11-05T10:06:27.880Z,100009.98
2018-11-05T10:11:31.323Z,99978.25
2018-11-05T10:16:34.766Z,99959.84
2018-11-05T10:21:38.243Z,99948.80
2018-11-05T10:26:41.687Z,99948.88
2018-11-05T10:31:45.133Z,99940.68
2018-11-05T10:36:48.583Z,99935.05
2018-11-05T10:41:52.022Z,99940.45
2018-11-05T10:46:55.512Z,99946.70
2018-11-05T10:51:59.129Z,99919.75
2018-11-05T10:57:02.490Z,99896.38
2018-11-05T11:02:11.251Z,99892.81
2018-11-05T11:07:14.707Z,99897.09
2018-11-05T11:12:18.186Z,99900.00
2018-11-05T11:17:21.635Z,99881.14
2018-11-05T11:22:25.094Z,99895.63
2018-11-05T11:27:28.583Z,99890.16
2018-11-05T11:32:32.098Z,99864.08
2018-11-05T11:37:35.562Z,99876.86
2018-11-05T11:42:39.915Z,99859.34
2018-11-05T11:47:43.348Z,99865.55
2018-11-05T11:52:47.075Z,99858.98
2018-11-05T11:57:50.375Z,99856.79
2018-11-05T12:02:58.396Z,99858.13
2018-11-05T12:08:01.838Z,99852.64
2018-11-05T12:13:05.365Z,99841.16
2018-11-05T12:18:08.793Z,99847.27
2018-11-05T12:23:12.254Z,99826.81
2018-11-05T12:28:15.707Z,99836.42
2018-11-05T12:33:19.170Z,99819.98
2018-11-05T12:38:22.715Z,99821.94
2018-11-05T12:43:26.387Z,99814.98
2018-11-05T12:48:29.825Z,99820.21
2018-11-05T12:53:33.279Z,99826.55
2018-11-05T12:58:36.739Z,99824.48
2018-11-05T13:03:40.180Z,99817.66
2018-11-05T13:08:43.879Z,99810.55
2018-11-05T13:13:47.315Z,99810.00
2018-11-05T13:18:50.823Z,99792.83
2018-11-05T13:23:54.311Z,99798.83
2018-11-05T13:28:57.792Z,99783.73
2018-11-05T13:34:01.240Z,99796.01
2018-11-05T13:39:06.385Z,99781.41
2018-11-05T13:44:09.826Z,99771.53
2018-11-05T13:49:13.384Z,99756.50
2018-11-05T13:54:16.913Z,99765.49
2018-11-05T13:59:20.330Z,99773.64
2018-11-05T14:04:23.783Z,99764.77
2018-11-05T14:09:27.271Z,99768.64
2018-11-05T14:14:30.764Z,99764.75
2018-11-05T14:19:34.271Z,99761.00
2018-11-05T14:24:37.763Z,99752.20
2018-11-05T14:29:41.711Z,99774.16
2018-11-05T14:34:44.778Z,99776.95
2018-11-05T14:39:48.254Z,99774.39
2018-11-05T14:44:51.755Z,99766.47
2018-11-05T14:49:55.314Z,99761.38
2018-11-05T14:54:58.805Z,99755.56
2018-11-05T15:00:02.386Z,99760.88
2018-11-05T15:05:07.242Z,99749.58
2018-11-05T15:10:17.383Z,99748.23
2018-11-05T15:15:21.514Z,99761.64
2018-11-05T15:20:26.027Z,99743.01
2018-11-05T15:25:29.507Z,99739.34
2018-11-05T15:30:33.000Z,99739.20
2018-11-05T15:35:38.689Z,99740.19
2018-11-05T15:40:42.183Z,99748.09
2018-11-05T15:45:45.650Z,99732.92
2018-11-05T15:50:50.610Z,99735.11
2018-11-05T15:55:55.058Z,99731.45
2018-11-05T16:01:01.147Z,99741.41
2018-11-05T16:06:05.459Z,99742.27
2018-11-05T16:11:08.912Z,99744.34
2018-11-05T16:16:12.466Z,99743.96
2018-11-05T16:21:17.512Z,99756.41
2018-11-05T16:26:21.591Z,99753.73
2018-11-05T16:31:26.474Z,99749.08
2018-11-05T16:36:29.960Z,99738.70
2018-11-05T16:41:33.439Z,99740.75
2018-11-05T16:46:36.946Z,99728.90
2018-11-05T16:51:41.147Z,99732.92
2018-11-05T16:56:45.168Z,99723.92
2018-11-05T17:01:49.618Z,99724.77
2018-11-05T17:06:53.192Z,99716.95
2018-11-05T17:11:56.672Z,99714.34
2018-11-05T17:17:00.230Z,99716.52
2018-11-05T17:22:03.694Z,99719.45
2018-11-05T17:27:07.142Z,99720.52
2018-11-05T17:32:10.583Z,99724.98
2018-11-05T17:37:14.034Z,99719.67
2018-11-05T17:42:17.509Z,99702.91
2018-11-05T17:47:20.997Z,99699.81
2018-11-05T17:52:24.538Z,99711.32
2018-11-05T17:57:28.021Z,99702.70
2018-11-05T18:02:31.519Z,99698.38
2018-11-05T18:07:36.492Z,99686.73
2018-11-05T18:12:39.954Z,99706.44
2018-11-05T18:17:44.556Z,99705.69
2018-11-05T18:22:48.016Z,99701.16
2018-11-05T18:27:51.952Z,99703.05
2018-11-05T18:32:55.510Z,99711.81
2018-11-05T18:37:59.022Z,99710.27
2018-11-05T18:43:02.607Z,99707.53
2018-11-05T18:48:06.107Z,99716.73
2018-11-05T18:53:09.602Z,99708.78
2018-11-05T18:58:13.108Z,99703.91
2018-11-05T19:03:16.611Z,99701.72
2018-11-05T19:08:20.070Z,99703.99
2018-11-05T19:13:23.550Z,99700.83
2018-11-05T19:18:27.085Z,99696.70
2018-11-05T19:23:30.659Z,99696.64
2018-11-05T19:28:34.094Z,99688.23
2018-11-05T19:33:37.528Z,99681.42
2018-11-05T19:38:41.017Z,99680.84
2018-11-05T19:43:44.466Z,99677.45
2018-11-05T19:48:47.956Z,99680.20
2018-11-05T19:53:51.413Z,99676.25
2018-11-05T19:58:54.873Z,99687.02
2018-11-05T20:03:58.451Z,99686.66
2018-11-05T20:09:01.915Z,99678.50
2018-11-05T20:14:05.374Z,99683.67
2018-11-05T20:19:08.881Z,99675.17
2018-11-05T20:24:12.383Z,99684.88
2018-11-05T20:29:15.825Z,99690.95
2018-11-05T20:34:19.709Z,99691.95
2018-11-05T20:39:22.971Z,99688.06
2018-11-05T20:44:26.520Z,99683.69
2018-11-05T20:49:29.981Z,99680.64
2018-11-05T20:54:33.442Z,99683.98
2018-11-05T20:59:36.970Z,99683.59
2018-11-05T21:04:40.445Z,99690.70
2018-11-05T21:09:44.114Z,99687.16
2018-11-05T21:14:47.664Z,99683.75
2018-11-05T21:19:51.160Z,99680.45
2018-11-05T21:24:54.659Z,99688.22
2018-11-05T21:29:58.117Z,99691.61
2018-11-05T21:35:01.643Z,99699.88
2018-11-05T21:40:06.822Z,99689.06
2018-11-05T21:45:11.595Z,99693.66
2018-11-05T21:50:16.317Z,99686.88
2018-11-05T21:55:19.762Z,99693.80
2018-11-05T22:00:25.416Z,99675.05
2018-11-05T22:05:28.898Z,99678.11
2018-11-05T22:10:32.330Z,99682.64
2018-11-05T22:15:45.324Z,99677.97
2018-11-05T22:20:48.763Z,99677.12
2018-11-05T22:25:52.220Z,99681.41
2018-11-05T22:30:55.746Z,99682.05
2018-11-05T22:35:59.205Z,99684.74
2018-11-05T22:41:02.670Z,99692.80
2018-11-05T22:46:06.581Z,99704.98
2018-11-05T22:51:10.026Z,99704.75
2018-11-05T22:56:13.528Z,99702.41
2018-11-05T23:01:22.212Z,99703.20
2018-11-05T23:06:25.715Z,99693.59
2018-11-05T23:11:29.165Z,99699.52
2018-11-05T23:16:32.674Z,99713.45
2018-11-05T23:21:36.130Z,99707.38
2018-11-05T23:26:39.549Z,99713.40
2018-11-05T23:31:42.982Z,99719.62
2018-11-05T23:36:46.437Z,99717.28
2018-11-05T23:41:49.876Z,99725.84
2018-11-05T23:46:53.333Z,99730.72
2018-11-05T23:51:56.960Z,99730.12
2018-11-05T23:57:00.271Z,99732.46
